sensor_id;sensor_type;location;lat;lon;timestamp;temperature;humidity
43320;DHT22;28914;48.722;9.332;2023-06-14T00:02:53;17.60;48.60
43320;DHT22;28914;48.722;9.332;2023-06-14T00:08:14;17.50;48.30
43320;DHT22;28914;48.722;9.332;2023-06-14T00:13:34;17.40;48.30
43320;DHT22;28914;48.722;9.332;2023-06-14T00:18:53;17.40;48.90
43320;DHT22;28914;48.722;9.332;2023-06-14T00:24:12;17.30;49.20
43320;DHT22;28914;48.722;9.332;2023-06-14T00:29:31;17.20;49.30
43320;DHT22;28914;48.722;9.332;2023-06-14T00:34:51;17.10;49.80
43320;DHT22;28914;48.722;9.332;2023-06-14T00:40:10;17.00;50.30
43320;DHT22;28914;48.722;9.332;2023-06-14T00:45:29;16.90;50.50
43320;DHT22;28914;48.722;9.332;2023-06-14T00:50:50;16.80;50.40
43320;DHT22;28914;48.722;9.332;2023-06-14T00:56:12;16.70;51.00
43320;DHT22;28914;48.722;9.332;2023-06-14T01:01:32;16.60;51.20
43320;DHT22;28914;48.722;9.332;2023-06-14T01:07:02;16.50;51.90
43320;DHT22;28914;48.722;9.332;2023-06-14T01:12:56;16.40;51.80
43320;DHT22;28914;48.722;9.332;2023-06-14T01:18:17;16.30;51.90
43320;DHT22;28914;48.722;9.332;2023-06-14T01:23:37;16.20;52.00
43320;DHT22;28914;48.722;9.332;2023-06-14T01:28:56;16.10;52.30
43320;DHT22;28914;48.722;9.332;2023-06-14T01:34:17;16.00;52.60
43320;DHT22;28914;48.722;9.332;2023-06-14T01:39:37;16.00;52.70
43320;DHT22;28914;48.722;9.332;2023-06-14T01:44:56;15.90;52.70
43320;DHT22;28914;48.722;9.332;2023-06-14T01:50:15;15.80;53.30
43320;DHT22;28914;48.722;9.332;2023-06-14T01:55:35;15.80;53.50
43320;DHT22;28914;48.722;9.332;2023-06-14T02:00:56;15.70;53.60
43320;DHT22;28914;48.722;9.332;2023-06-14T02:06:15;15.70;53.60
43320;DHT22;28914;48.722;9.332;2023-06-14T02:11:37;15.60;54.00
43320;DHT22;28914;48.722;9.332;2023-06-14T02:16:56;15.50;54.10
43320;DHT22;28914;48.722;9.332;2023-06-14T02:22:16;15.50;54.30
43320;DHT22;28914;48.722;9.332;2023-06-14T02:27:36;15.40;54.40
43320;DHT22;28914;48.722;9.332;2023-06-14T02:32:55;15.40;54.80
43320;DHT22;28914;48.722;9.332;2023-06-14T02:38:14;15.30;54.80
43320;DHT22;28914;48.722;9.332;2023-06-14T02:43:33;15.20;55.00
43320;DHT22;28914;48.722;9.332;2023-06-14T02:48:54;15.10;55.40
43320;DHT22;28914;48.722;9.332;2023-06-14T02:54:13;15.10;56.20
43320;DHT22;28914;48.722;9.332;2023-06-14T02:59:32;15.00;55.90
43320;DHT22;28914;48.722;9.332;2023-06-14T03:04:51;14.90;55.70
43320;DHT22;28914;48.722;9.332;2023-06-14T03:10:11;14.90;56.00
43320;DHT22;28914;48.722;9.332;2023-06-14T03:15:32;14.80;56.40
43320;DHT22;28914;48.722;9.332;2023-06-14T03:20:52;14.80;56.60
43320;DHT22;28914;48.722;9.332;2023-06-14T03:26:14;14.70;56.80
43320;DHT22;28914;48.722;9.332;2023-06-14T03:31:34;14.70;56.90
43320;DHT22;28914;48.722;9.332;2023-06-14T03:36:54;14.70;57.10
43320;DHT22;28914;48.722;9.332;2023-06-14T03:42:13;14.60;57.50
43320;DHT22;28914;48.722;9.332;2023-06-14T03:47:34;14.60;57.50
43320;DHT22;28914;48.722;9.332;2023-06-14T03:52:53;14.60;57.70
43320;DHT22;28914;48.722;9.332;2023-06-14T03:58:13;14.60;58.30
43320;DHT22;28914;48.722;9.332;2023-06-14T04:03:32;14.60;57.90
43320;DHT22;28914;48.722;9.332;2023-06-14T04:08:52;14.60;57.90
43320;DHT22;28914;48.722;9.332;2023-06-14T04:14:11;14.60;57.90
43320;DHT22;28914;48.722;9.332;2023-06-14T04:19:30;14.60;58.00
43320;DHT22;28914;48.722;9.332;2023-06-14T04:24:49;14.70;58.80
43320;DHT22;28914;48.722;9.332;2023-06-14T04:30:09;14.80;58.80
43320;DHT22;28914;48.722;9.332;2023-06-14T04:35:28;14.90;58.70
43320;DHT22;28914;48.722;9.332;2023-06-14T04:40:48;15.00;58.60
43320;DHT22;28914;48.722;9.332;2023-06-14T04:46:07;15.10;58.80
43320;DHT22;28914;48.722;9.332;2023-06-14T04:51:30;15.30;59.50
43320;DHT22;28914;48.722;9.332;2023-06-14T04:56:50;15.40;59.20
43320;DHT22;28914;48.722;9.332;2023-06-14T05:02:09;15.60;60.20
43320;DHT22;28914;48.722;9.332;2023-06-14T05:07:29;15.70;59.60
43320;DHT22;28914;48.722;9.332;2023-06-14T05:12:48;15.90;60.00
43320;DHT22;28914;48.722;9.332;2023-06-14T05:18:07;16.10;60.50
43320;DHT22;28914;48.722;9.332;2023-06-14T05:23:28;16.30;60.30
43320;DHT22;28914;48.722;9.332;2023-06-14T05:28:48;16.50;59.90
43320;DHT22;28914;48.722;9.332;2023-06-14T05:34:07;16.80;59.40
43320;DHT22;28914;48.722;9.332;2023-06-14T05:39:26;17.20;59.70
43320;DHT22;28914;48.722;9.332;2023-06-14T05:44:45;17.50;59.20
43320;DHT22;28914;48.722;9.332;2023-06-14T05:50:05;17.80;58.50
43320;DHT22;28914;48.722;9.332;2023-06-14T05:55:24;18.20;58.20
43320;DHT22;28914;48.722;9.332;2023-06-14T06:00:43;18.60;57.70
43320;DHT22;28914;48.722;9.332;2023-06-14T06:06:03;18.90;57.00
43320;DHT22;28914;48.722;9.332;2023-06-14T06:11:22;19.20;56.80
43320;DHT22;28914;48.722;9.332;2023-06-14T06:16:42;19.40;56.60
43320;DHT22;28914;48.722;9.332;2023-06-14T06:22:02;19.80;56.00
43320;DHT22;28914;48.722;9.332;2023-06-14T06:27:21;20.00;55.30
43320;DHT22;28914;48.722;9.332;2023-06-14T06:32:40;20.30;54.90
43320;DHT22;28914;48.722;9.332;2023-06-14T06:37:59;20.60;54.50
43320;DHT22;28914;48.722;9.332;2023-06-14T06:43:19;20.90;53.80
43320;DHT22;28914;48.722;9.332;2023-06-14T06:48:39;21.20;52.80
43320;DHT22;28914;48.722;9.332;2023-06-14T06:53:58;21.60;52.90
43320;DHT22;28914;48.722;9.332;2023-06-14T06:59:17;22.10;51.70
43320;DHT22;28914;48.722;9.332;2023-06-14T07:04:37;22.60;51.30
43320;DHT22;28914;48.722;9.332;2023-06-14T07:09:56;23.20;51.50
43320;DHT22;28914;48.722;9.332;2023-06-14T07:15:16;23.80;51.10
43320;DHT22;28914;48.722;9.332;2023-06-14T07:20:35;24.50;50.50
43320;DHT22;28914;48.722;9.332;2023-06-14T07:25:57;25.20;48.60
43320;DHT22;28914;48.722;9.332;2023-06-14T07:31:16;25.90;46.80
43320;DHT22;28914;48.722;9.332;2023-06-14T07:36:36;26.60;47.00
43320;DHT22;28914;48.722;9.332;2023-06-14T07:41:55;27.30;45.90
43320;DHT22;28914;48.722;9.332;2023-06-14T07:47:14;28.10;42.80
43320;DHT22;28914;48.722;9.332;2023-06-14T07:52:34;28.80;42.30
43320;DHT22;28914;48.722;9.332;2023-06-14T07:57:53;29.50;42.20
43320;DHT22;28914;48.722;9.332;2023-06-14T08:03:12;30.40;38.90
43320;DHT22;28914;48.722;9.332;2023-06-14T08:08:32;31.20;36.80
43320;DHT22;28914;48.722;9.332;2023-06-14T08:13:51;32.20;38.80
43320;DHT22;28914;48.722;9.332;2023-06-14T08:19:10;33.50;38.00
43320;DHT22;28914;48.722;9.332;2023-06-14T08:24:29;35.00;38.00
43320;DHT22;28914;48.722;9.332;2023-06-14T08:29:49;36.50;37.20
43320;DHT22;28914;48.722;9.332;2023-06-14T08:35:09;37.90;35.10
43320;DHT22;28914;48.722;9.332;2023-06-14T08:40:29;39.20;34.40
43320;DHT22;28914;48.722;9.332;2023-06-14T08:45:53;40.30;32.00
43320;DHT22;28914;48.722;9.332;2023-06-14T08:51:18;41.40;30.80
43320;DHT22;28914;48.722;9.332;2023-06-14T08:56:38;42.40;29.40
43320;DHT22;28914;48.722;9.332;2023-06-14T09:01:57;43.30;29.00
43320;DHT22;28914;48.722;9.332;2023-06-14T09:07:17;44.00;28.60
43320;DHT22;28914;48.722;9.332;2023-06-14T09:12:37;44.80;28.10
43320;DHT22;28914;48.722;9.332;2023-06-14T09:17:56;45.50;27.20
43320;DHT22;28914;48.722;9.332;2023-06-14T09:23:20;45.70;26.00
43320;DHT22;28914;48.722;9.332;2023-06-14T09:28:44;45.80;25.30
43320;DHT22;28914;48.722;9.332;2023-06-14T09:34:05;46.10;25.70
43320;DHT22;28914;48.722;9.332;2023-06-14T09:39:24;46.20;25.60
43320;DHT22;28914;48.722;9.332;2023-06-14T09:44:47;46.60;25.30
43320;DHT22;28914;48.722;9.332;2023-06-14T09:50:07;47.30;24.60
43320;DHT22;28914;48.722;9.332;2023-06-14T09:55:28;48.00;24.10
43320;DHT22;28914;48.722;9.332;2023-06-14T10:00:50;47.50;22.90
43320;DHT22;28914;48.722;9.332;2023-06-14T10:06:11;46.00;22.90
43320;DHT22;28914;48.722;9.332;2023-06-14T10:11:30;44.90;21.90
43320;DHT22;28914;48.722;9.332;2023-06-14T10:17:05;45.10;23.70
43320;DHT22;28914;48.722;9.332;2023-06-14T10:22:32;45.10;23.60
43320;DHT22;28914;48.722;9.332;2023-06-14T10:27:53;44.00;23.50
43320;DHT22;28914;48.722;9.332;2023-06-14T10:33:14;42.60;24.20
43320;DHT22;28914;48.722;9.332;2023-06-14T10:38:36;42.60;24.80
43320;DHT22;28914;48.722;9.332;2023-06-14T10:49:44;45.10;23.70
43320;DHT22;28914;48.722;9.332;2023-06-14T10:55:11;44.90;23.20
43320;DHT22;28914;48.722;9.332;2023-06-14T11:00:36;43.40;23.00
43320;DHT22;28914;48.722;9.332;2023-06-14T11:05:58;41.70;23.60
43320;DHT22;28914;48.722;9.332;2023-06-14T11:11:18;40.60;24.90
43320;DHT22;28914;48.722;9.332;2023-06-14T11:16:39;40.30;25.10
43320;DHT22;28914;48.722;9.332;2023-06-14T11:21:59;40.20;25.00
43320;DHT22;28914;48.722;9.332;2023-06-14T11:27:18;39.70;24.50
43320;DHT22;28914;48.722;9.332;2023-06-14T11:32:38;38.90;24.90
43320;DHT22;28914;48.722;9.332;2023-06-14T11:37:57;37.80;24.90
43320;DHT22;28914;48.722;9.332;2023-06-14T11:43:16;36.60;25.60
43320;DHT22;28914;48.722;9.332;2023-06-14T11:48:37;35.60;26.10
43320;DHT22;28914;48.722;9.332;2023-06-14T11:53:57;35.00;26.90
43320;DHT22;28914;48.722;9.332;2023-06-14T11:59:17;34.60;26.70
43320;DHT22;28914;48.722;9.332;2023-06-14T12:04:36;34.30;27.10
43320;DHT22;28914;48.722;9.332;2023-06-14T12:15:17;34.00;27.60
43320;DHT22;28914;48.722;9.332;2023-06-14T12:20:39;34.00;27.70
43320;DHT22;28914;48.722;9.332;2023-06-14T12:25:59;33.90;27.50
43320;DHT22;28914;48.722;9.332;2023-06-14T12:31:19;33.60;27.50
43320;DHT22;28914;48.722;9.332;2023-06-14T12:36:38;33.00;27.10
43320;DHT22;28914;48.722;9.332;2023-06-14T12:42:03;32.40;27.60
43320;DHT22;28914;48.722;9.332;2023-06-14T12:47:23;31.90;28.20
43320;DHT22;28914;48.722;9.332;2023-06-14T12:52:42;31.50;28.60
43320;DHT22;28914;48.722;9.332;2023-06-14T12:58:01;31.40;29.50
43320;DHT22;28914;48.722;9.332;2023-06-14T13:03:20;31.40;29.10
43320;DHT22;28914;48.722;9.332;2023-06-14T13:08:40;31.60;29.20
43320;DHT22;28914;48.722;9.332;2023-06-14T13:13:59;31.70;29.00
43320;DHT22;28914;48.722;9.332;2023-06-14T13:19:19;31.70;28.80
43320;DHT22;28914;48.722;9.332;2023-06-14T13:24:38;31.40;28.90
43320;DHT22;28914;48.722;9.332;2023-06-14T13:29:58;31.30;29.10
43320;DHT22;28914;48.722;9.332;2023-06-14T13:35:18;31.00;29.20
43320;DHT22;28914;48.722;9.332;2023-06-14T13:40:37;30.90;29.50
43320;DHT22;28914;48.722;9.332;2023-06-14T13:45:57;30.70;29.60
43320;DHT22;28914;48.722;9.332;2023-06-14T13:51:16;30.70;29.70
43320;DHT22;28914;48.722;9.332;2023-06-14T13:56:37;30.80;30.10
43320;DHT22;28914;48.722;9.332;2023-06-14T14:01:56;31.00;30.20
43320;DHT22;28914;48.722;9.332;2023-06-14T14:07:16;31.20;30.20
43320;DHT22;28914;48.722;9.332;2023-06-14T14:12:35;31.30;30.00
43320;DHT22;28914;48.722;9.332;2023-06-14T14:17:55;31.40;30.10
43320;DHT22;28914;48.722;9.332;2023-06-14T14:23:16;31.30;30.10
43320;DHT22;28914;48.722;9.332;2023-06-14T14:28:35;31.20;30.00
43320;DHT22;28914;48.722;9.332;2023-06-14T14:33:55;31.00;30.00
43320;DHT22;28914;48.722;9.332;2023-06-14T14:39:15;30.80;30.20
43320;DHT22;28914;48.722;9.332;2023-06-14T14:44:34;30.60;30.20
43320;DHT22;28914;48.722;9.332;2023-06-14T14:49:54;30.30;30.20
43320;DHT22;28914;48.722;9.332;2023-06-14T14:55:14;30.20;30.50
43320;DHT22;28914;48.722;9.332;2023-06-14T15:00:32;30.10;30.90
43320;DHT22;28914;48.722;9.332;2023-06-14T15:05:52;30.20;31.50
43320;DHT22;28914;48.722;9.332;2023-06-14T15:11:11;30.40;31.60
43320;DHT22;28914;48.722;9.332;2023-06-14T15:16:30;30.60;31.80
43320;DHT22;28914;48.722;9.332;2023-06-14T15:21:49;30.70;31.60
43320;DHT22;28914;48.722;9.332;2023-06-14T15:27:08;30.80;31.10
43320;DHT22;28914;48.722;9.332;2023-06-14T15:32:28;30.80;31.00
43320;DHT22;28914;48.722;9.332;2023-06-14T15:37:47;30.70;30.80
43320;DHT22;28914;48.722;9.332;2023-06-14T15:43:07;30.60;31.10
43320;DHT22;28914;48.722;9.332;2023-06-14T15:48:27;30.50;31.30
43320;DHT22;28914;48.722;9.332;2023-06-14T15:53:46;30.40;31.40
43320;DHT22;28914;48.722;9.332;2023-06-14T15:59:05;30.30;31.40
43320;DHT22;28914;48.722;9.332;2023-06-14T16:04:27;30.20;31.50
43320;DHT22;28914;48.722;9.332;2023-06-14T16:09:46;30.10;31.50
43320;DHT22;28914;48.722;9.332;2023-06-14T16:15:05;30.00;31.70
43320;DHT22;28914;48.722;9.332;2023-06-14T16:20:25;29.90;31.60
43320;DHT22;28914;48.722;9.332;2023-06-14T16:25:44;29.80;31.80
43320;DHT22;28914;48.722;9.332;2023-06-14T16:31:03;29.70;32.00
43320;DHT22;28914;48.722;9.332;2023-06-14T16:36:24;29.70;32.00
43320;DHT22;28914;48.722;9.332;2023-06-14T16:41:43;29.60;31.90
43320;DHT22;28914;48.722;9.332;2023-06-14T16:47:02;29.50;31.90
43320;DHT22;28914;48.722;9.332;2023-06-14T16:52:23;29.40;31.90
43320;DHT22;28914;48.722;9.332;2023-06-14T16:57:42;29.40;32.10
43320;DHT22;28914;48.722;9.332;2023-06-14T17:03:01;29.30;32.30
43320;DHT22;28914;48.722;9.332;2023-06-14T17:08:20;29.20;32.40
43320;DHT22;28914;48.722;9.332;2023-06-14T17:13:39;29.10;32.50
43320;DHT22;28914;48.722;9.332;2023-06-14T17:18:58;29.10;32.70
43320;DHT22;28914;48.722;9.332;2023-06-14T17:24:19;29.10;32.70
43320;DHT22;28914;48.722;9.332;2023-06-14T17:29:39;28.90;32.50
43320;DHT22;28914;48.722;9.332;2023-06-14T17:34:58;28.80;32.60
43320;DHT22;28914;48.722;9.332;2023-06-14T17:40:17;28.60;32.90
43320;DHT22;28914;48.722;9.332;2023-06-14T17:45:36;28.40;33.10
43320;DHT22;28914;48.722;9.332;2023-06-14T17:50:55;28.30;33.70
43320;DHT22;28914;48.722;9.332;2023-06-14T17:56:15;28.00;33.40
43320;DHT22;28914;48.722;9.332;2023-06-14T18:01:34;27.80;33.60
43320;DHT22;28914;48.722;9.332;2023-06-14T18:06:54;27.60;34.10
43320;DHT22;28914;48.722;9.332;2023-06-14T18:12:13;27.40;34.30
43320;DHT22;28914;48.722;9.332;2023-06-14T18:17:32;27.30;34.70
43320;DHT22;28914;48.722;9.332;2023-06-14T18:22:51;27.20;34.50
43320;DHT22;28914;48.722;9.332;2023-06-14T18:28:10;27.00;34.60
43320;DHT22;28914;48.722;9.332;2023-06-14T18:33:29;26.90;34.90
43320;DHT22;28914;48.722;9.332;2023-06-14T18:38:49;26.70;35.10
43320;DHT22;28914;48.722;9.332;2023-06-14T18:44:08;26.50;36.10
43320;DHT22;28914;48.722;9.332;2023-06-14T18:49:27;26.40;35.80
43320;DHT22;28914;48.722;9.332;2023-06-14T18:54:46;26.20;36.00
43320;DHT22;28914;48.722;9.332;2023-06-14T19:00:06;26.10;36.30
43320;DHT22;28914;48.722;9.332;2023-06-14T19:05:25;25.90;36.40
43320;DHT22;28914;48.722;9.332;2023-06-14T19:10:45;25.70;36.30
43320;DHT22;28914;48.722;9.332;2023-06-14T19:16:04;25.60;37.10
43320;DHT22;28914;48.722;9.332;2023-06-14T19:21:23;25.40;36.90
43320;DHT22;28914;48.722;9.332;2023-06-14T19:26:42;25.30;37.20
43320;DHT22;28914;48.722;9.332;2023-06-14T19:32:01;25.10;37.40
43320;DHT22;28914;48.722;9.332;2023-06-14T19:37:21;25.00;37.80
43320;DHT22;28914;48.722;9.332;2023-06-14T19:42:41;24.80;38.20
43320;DHT22;28914;48.722;9.332;2023-06-14T19:48:00;24.60;38.40
43320;DHT22;28914;48.722;9.332;2023-06-14T19:53:19;24.40;38.70
43320;DHT22;28914;48.722;9.332;2023-06-14T19:58:39;24.20;38.70
43320;DHT22;28914;48.722;9.332;2023-06-14T20:03:58;24.10;39.10
43320;DHT22;28914;48.722;9.332;2023-06-14T20:09:17;23.90;39.90
43320;DHT22;28914;48.722;9.332;2023-06-14T20:14:38;23.80;39.60
43320;DHT22;28914;48.722;9.332;2023-06-14T20:19:57;23.70;39.80
43320;DHT22;28914;48.722;9.332;2023-06-14T20:25:16;23.60;40.10
43320;DHT22;28914;48.722;9.332;2023-06-14T20:30:36;23.60;40.80
43320;DHT22;28914;48.722;9.332;2023-06-14T20:35:56;23.50;41.30
43320;DHT22;28914;48.722;9.332;2023-06-14T20:41:15;23.40;41.10
43320;DHT22;28914;48.722;9.332;2023-06-14T20:46:34;23.40;41.70
43320;DHT22;28914;48.722;9.332;2023-06-14T20:51:56;23.30;41.60
43320;DHT22;28914;48.722;9.332;2023-06-14T20:57:15;23.20;42.00
43320;DHT22;28914;48.722;9.332;2023-06-14T21:02:38;23.10;42.40
43320;DHT22;28914;48.722;9.332;2023-06-14T21:07:57;22.90;43.60
43320;DHT22;28914;48.722;9.332;2023-06-14T21:13:18;22.70;43.00
43320;DHT22;28914;48.722;9.332;2023-06-14T21:18:37;22.50;43.80
43320;DHT22;28914;48.722;9.332;2023-06-14T21:23:56;22.40;43.70
43320;DHT22;28914;48.722;9.332;2023-06-14T21:29:16;22.20;43.80
43320;DHT22;28914;48.722;9.332;2023-06-14T21:34:35;22.10;44.10
43320;DHT22;28914;48.722;9.332;2023-06-14T21:39:56;22.00;44.50
43320;DHT22;28914;48.722;9.332;2023-06-14T21:45:15;21.80;44.20
43320;DHT22;28914;48.722;9.332;2023-06-14T21:50:34;21.70;44.70
43320;DHT22;28914;48.722;9.332;2023-06-14T21:55:53;21.60;44.70
43320;DHT22;28914;48.722;9.332;2023-06-14T22:01:13;21.40;44.90
43320;DHT22;28914;48.722;9.332;2023-06-14T22:06:32;21.30;45.90
43320;DHT22;28914;48.722;9.332;2023-06-14T22:11:51;21.20;45.90
43320;DHT22;28914;48.722;9.332;2023-06-14T22:17:12;21.10;46.20
43320;DHT22;28914;48.722;9.332;2023-06-14T22:22:33;21.00;47.20
43320;DHT22;28914;48.722;9.332;2023-06-14T22:27:56;20.80;47.00
43320;DHT22;28914;48.722;9.332;2023-06-14T22:33:18;20.70;46.80
43320;DHT22;28914;48.722;9.332;2023-06-14T22:38:44;20.60;47.10
43320;DHT22;28914;48.722;9.332;2023-06-14T22:44:06;20.50;47.10
43320;DHT22;28914;48.722;9.332;2023-06-14T22:49:26;20.40;47.40
43320;DHT22;28914;48.722;9.332;2023-06-14T22:54:49;20.30;48.10
43320;DHT22;28914;48.722;9.332;2023-06-14T23:00:09;20.20;48.40
43320;DHT22;28914;48.722;9.332;2023-06-14T23:05:30;20.00;48.40
43320;DHT22;28914;48.722;9.332;2023-06-14T23:10:51;19.90;48.50
43320;DHT22;28914;48.722;9.332;2023-06-14T23:16:10;19.80;48.80
43320;DHT22;28914;48.722;9.332;2023-06-14T23:21:31;19.70;49.20
43320;DHT22;28914;48.722;9.332;2023-06-14T23:26:52;19.50;49.50
43320;DHT22;28914;48.722;9.332;2023-06-14T23:32:16;19.40;50.40
43320;DHT22;28914;48.722;9.332;2023-06-14T23:37:37;19.30;50.00
43320;DHT22;28914;48.722;9.332;2023-06-14T23:42:56;19.20;50.40
43320;DHT22;28914;48.722;9.332;2023-06-14T23:48:16;19.10;50.30
43320;DHT22;28914;48.722;9.332;2023-06-14T23:53:35;19.00;50.70
43320;DHT22;28914;48.722;9.332;2023-06-14T23:58:56;18.90;51.10
